sensor_id;sensor_type;location;lat;lon;timestamp;P1;durP1;ratioP1;P2;durP2;ratioP2
21862;SDS011;11096;51.338;12.524;2022-11-21T00:00:33;28.67;;;11.73;;
21862;SDS011;11096;51.338;12.524;2022-11-21T00:03:00;29.95;;;12.18;;
21862;SDS011;11096;51.338;12.524;2022-11-21T00:05:29;29.13;;;12.07;;
21862;SDS011;11096;51.338;12.524;2022-11-21T00:07:56;30.08;;;12.05;;
21862;SDS011;11096;51.338;12.524;2022-11-21T00:10:22;27.83;;;12.63;;
21862;SDS011;11096;51.338;12.524;2022-11-21T00:12:55;32.72;;;13.18;;
21862;SDS011;11096;51.338;12.524;2022-11-21T00:15:21;29.73;;;12.48;;
21862;SDS011;11096;51.338;12.524;2022-11-21T00:17:48;25.92;;;11.68;;
21862;SDS011;11096;51.338;12.524;2022-11-21T00:20:15;29.75;;;13.88;;
21862;SDS011;11096;51.338;12.524;2022-11-21T00:22:40;29.08;;;12.45;;
21862;SDS011;11096;51.338;12.524;2022-11-21T00:25:06;24.35;;;11.25;;
21862;SDS011;11096;51.338;12.524;2022-11-21T00:27:32;26.70;;;11.52;;
21862;SDS011;11096;51.338;12.524;2022-11-21T00:29:57;30.92;;;13.05;;
21862;SDS011;11096;51.338;12.524;2022-11-21T00:32:22;27.98;;;12.38;;
21862;SDS011;11096;51.338;12.524;2022-11-21T00:34:48;31.33;;;13.00;;
21862;SDS011;11096;51.338;12.524;2022-11-21T00:37:13;27.63;;;12.85;;
21862;SDS011;11096;51.338;12.524;2022-11-21T00:39:38;29.83;;;11.75;;
21862;SDS011;11096;51.338;12.524;2022-11-21T00:42:04;30.42;;;13.48;;
21862;SDS011;11096;51.338;12.524;2022-11-21T00:44:29;29.75;;;12.32;;
21862;SDS011;11096;51.338;12.524;2022-11-21T00:46:55;31.05;;;11.48;;
21862;SDS011;11096;51.338;12.524;2022-11-21T00:49:20;31.10;;;12.10;;
21862;SDS011;11096;51.338;12.524;2022-11-21T00:51:45;27.25;;;12.35;;
21862;SDS011;11096;51.338;12.524;2022-11-21T00:54:11;27.48;;;12.32;;
21862;SDS011;11096;51.338;12.524;2022-11-21T00:56:36;32.08;;;13.35;;
21862;SDS011;11096;51.338;12.524;2022-11-21T00:59:02;27.23;;;12.27;;
21862;SDS011;11096;51.338;12.524;2022-11-21T01:01:27;30.88;;;12.27;;
21862;SDS011;11096;51.338;12.524;2022-11-21T01:03:53;25.85;;;11.10;;
21862;SDS011;11096;51.338;12.524;2022-11-21T01:06:18;26.88;;;10.93;;
21862;SDS011;11096;51.338;12.524;2022-11-21T01:08:43;28.08;;;11.57;;
21862;SDS011;11096;51.338;12.524;2022-11-21T01:11:10;27.05;;;12.68;;
21862;SDS011;11096;51.338;12.524;2022-11-21T01:13:40;24.35;;;10.90;;
21862;SDS011;11096;51.338;12.524;2022-11-21T01:16:06;29.33;;;12.15;;
21862;SDS011;11096;51.338;12.524;2022-11-21T01:18:38;31.00;;;11.50;;
21862;SDS011;11096;51.338;12.524;2022-11-21T01:21:05;29.58;;;12.38;;
21862;SDS011;11096;51.338;12.524;2022-11-21T01:23:33;30.08;;;11.77;;
21862;SDS011;11096;51.338;12.524;2022-11-21T01:26:06;30.75;;;11.55;;
21862;SDS011;11096;51.338;12.524;2022-11-21T01:28:34;30.50;;;11.82;;
21862;SDS011;11096;51.338;12.524;2022-11-21T01:31:07;27.73;;;11.73;;
21862;SDS011;11096;51.338;12.524;2022-11-21T01:33:37;32.78;;;11.93;;
21862;SDS011;11096;51.338;12.524;2022-11-21T01:38:35;31.00;;;12.80;;
21862;SDS011;11096;51.338;12.524;2022-11-21T01:41:00;28.95;;;11.88;;
21862;SDS011;11096;51.338;12.524;2022-11-21T01:43:26;27.48;;;11.82;;
21862;SDS011;11096;51.338;12.524;2022-11-21T01:45:52;31.10;;;12.00;;
21862;SDS011;11096;51.338;12.524;2022-11-21T01:48:27;26.48;;;11.02;;
21862;SDS011;11096;51.338;12.524;2022-11-21T01:51:02;27.08;;;11.50;;
21862;SDS011;11096;51.338;12.524;2022-11-21T01:53:33;27.27;;;12.57;;
21862;SDS011;11096;51.338;12.524;2022-11-21T01:56:00;30.23;;;12.73;;
21862;SDS011;11096;51.338;12.524;2022-11-21T01:58:26;28.48;;;11.95;;
21862;SDS011;11096;51.338;12.524;2022-11-21T02:00:55;30.35;;;12.15;;
21862;SDS011;11096;51.338;12.524;2022-11-21T02:03:21;27.60;;;12.32;;
21862;SDS011;11096;51.338;12.524;2022-11-21T02:05:52;34.03;;;13.52;;
21862;SDS011;11096;51.338;12.524;2022-11-21T02:08:19;35.88;;;14.85;;
21862;SDS011;11096;51.338;12.524;2022-11-21T02:10:49;33.15;;;12.90;;
21862;SDS011;11096;51.338;12.524;2022-11-21T02:13:22;29.73;;;12.63;;
21862;SDS011;11096;51.338;12.524;2022-11-21T02:15:48;28.83;;;11.77;;
21862;SDS011;11096;51.338;12.524;2022-11-21T02:18:13;25.50;;;12.02;;
21862;SDS011;11096;51.338;12.524;2022-11-21T02:20:39;29.42;;;12.05;;
21862;SDS011;11096;51.338;12.524;2022-11-21T02:23:21;31.85;;;12.70;;
21862;SDS011;11096;51.338;12.524;2022-11-21T02:25:49;33.25;;;13.27;;
21862;SDS011;11096;51.338;12.524;2022-11-21T02:28:15;32.53;;;13.13;;
21862;SDS011;11096;51.338;12.524;2022-11-21T02:30:43;31.02;;;13.05;;
21862;SDS011;11096;51.338;12.524;2022-11-21T02:33:09;29.77;;;11.70;;
21862;SDS011;11096;51.338;12.524;2022-11-21T02:35:36;28.60;;;13.00;;
21862;SDS011;11096;51.338;12.524;2022-11-21T02:40:52;30.48;;;12.20;;
21862;SDS011;11096;51.338;12.524;2022-11-21T02:43:27;31.08;;;12.60;;
21862;SDS011;11096;51.338;12.524;2022-11-21T02:45:57;30.38;;;13.60;;
21862;SDS011;11096;51.338;12.524;2022-11-21T02:48:23;31.23;;;13.15;;
21862;SDS011;11096;51.338;12.524;2022-11-21T02:50:48;28.48;;;13.10;;
21862;SDS011;11096;51.338;12.524;2022-11-21T02:53:15;24.90;;;11.98;;
21862;SDS011;11096;51.338;12.524;2022-11-21T02:55:42;35.10;;;13.07;;
21862;SDS011;11096;51.338;12.524;2022-11-21T02:58:08;29.20;;;11.68;;
21862;SDS011;11096;51.338;12.524;2022-11-21T03:00:34;28.83;;;11.57;;
21862;SDS011;11096;51.338;12.524;2022-11-21T03:03:01;30.13;;;13.45;;
21862;SDS011;11096;51.338;12.524;2022-11-21T03:05:26;26.13;;;11.48;;
21862;SDS011;11096;51.338;12.524;2022-11-21T03:07:52;29.90;;;12.43;;
21862;SDS011;11096;51.338;12.524;2022-11-21T03:10:17;27.75;;;11.68;;
21862;SDS011;11096;51.338;12.524;2022-11-21T03:12:43;28.45;;;12.20;;
21862;SDS011;11096;51.338;12.524;2022-11-21T03:15:10;27.83;;;12.45;;
21862;SDS011;11096;51.338;12.524;2022-11-21T03:17:37;29.27;;;11.98;;
21862;SDS011;11096;51.338;12.524;2022-11-21T03:20:03;29.13;;;12.35;;
21862;SDS011;11096;51.338;12.524;2022-11-21T03:22:29;31.88;;;12.48;;
21862;SDS011;11096;51.338;12.524;2022-11-21T03:24:54;30.48;;;11.85;;
21862;SDS011;11096;51.338;12.524;2022-11-21T03:27:20;29.27;;;13.57;;
21862;SDS011;11096;51.338;12.524;2022-11-21T03:29:45;29.08;;;12.68;;
21862;SDS011;11096;51.338;12.524;2022-11-21T03:32:10;33.60;;;13.85;;
21862;SDS011;11096;51.338;12.524;2022-11-21T03:34:36;28.45;;;12.68;;
21862;SDS011;11096;51.338;12.524;2022-11-21T03:37:01;33.65;;;14.30;;
21862;SDS011;11096;51.338;12.524;2022-11-21T03:39:30;27.50;;;12.70;;
21862;SDS011;11096;51.338;12.524;2022-11-21T03:41:56;31.23;;;14.38;;
21862;SDS011;11096;51.338;12.524;2022-11-21T03:44:22;35.20;;;14.77;;
21862;SDS011;11096;51.338;12.524;2022-11-21T03:46:47;34.42;;;14.40;;
21862;SDS011;11096;51.338;12.524;2022-11-21T03:49:13;38.13;;;14.10;;
21862;SDS011;11096;51.338;12.524;2022-11-21T03:51:40;37.00;;;14.88;;
21862;SDS011;11096;51.338;12.524;2022-11-21T03:54:06;29.20;;;13.02;;
21862;SDS011;11096;51.338;12.524;2022-11-21T03:56:32;33.83;;;13.85;;
21862;SDS011;11096;51.338;12.524;2022-11-21T03:58:58;34.83;;;13.55;;
21862;SDS011;11096;51.338;12.524;2022-11-21T04:01:23;37.10;;;15.13;;
21862;SDS011;11096;51.338;12.524;2022-11-21T04:03:49;33.33;;;15.00;;
21862;SDS011;11096;51.338;12.524;2022-11-21T04:06:16;31.80;;;12.93;;
21862;SDS011;11096;51.338;12.524;2022-11-21T04:08:42;36.55;;;14.32;;
21862;SDS011;11096;51.338;12.524;2022-11-21T04:11:08;39.05;;;14.82;;
21862;SDS011;11096;51.338;12.524;2022-11-21T04:13:33;38.20;;;15.05;;
21862;SDS011;11096;51.338;12.524;2022-11-21T04:15:59;37.08;;;14.05;;
21862;SDS011;11096;51.338;12.524;2022-11-21T04:18:25;34.97;;;15.00;;
21862;SDS011;11096;51.338;12.524;2022-11-21T04:20:57;37.50;;;15.50;;
21862;SDS011;11096;51.338;12.524;2022-11-21T04:23:23;33.13;;;13.65;;
21862;SDS011;11096;51.338;12.524;2022-11-21T04:25:49;41.30;;;15.32;;
21862;SDS011;11096;51.338;12.524;2022-11-21T04:28:15;41.55;;;16.15;;
21862;SDS011;11096;51.338;12.524;2022-11-21T04:30:40;31.98;;;13.63;;
21862;SDS011;11096;51.338;12.524;2022-11-21T04:33:11;33.80;;;14.52;;
21862;SDS011;11096;51.338;12.524;2022-11-21T04:35:38;35.17;;;14.40;;
21862;SDS011;11096;51.338;12.524;2022-11-21T04:38:03;38.17;;;14.93;;
21862;SDS011;11096;51.338;12.524;2022-11-21T04:40:29;33.97;;;14.00;;
21862;SDS011;11096;51.338;12.524;2022-11-21T04:42:54;36.63;;;14.93;;
21862;SDS011;11096;51.338;12.524;2022-11-21T04:45:20;35.17;;;14.25;;
21862;SDS011;11096;51.338;12.524;2022-11-21T04:47:45;33.20;;;14.15;;
21862;SDS011;11096;51.338;12.524;2022-11-21T04:50:12;34.25;;;14.30;;
21862;SDS011;11096;51.338;12.524;2022-11-21T04:52:39;38.15;;;16.13;;
21862;SDS011;11096;51.338;12.524;2022-11-21T04:55:05;34.85;;;14.95;;
21862;SDS011;11096;51.338;12.524;2022-11-21T04:57:31;39.47;;;15.60;;
21862;SDS011;11096;51.338;12.524;2022-11-21T04:59:57;38.78;;;15.23;;
21862;SDS011;11096;51.338;12.524;2022-11-21T05:02:23;37.13;;;15.38;;
21862;SDS011;11096;51.338;12.524;2022-11-21T05:04:49;35.53;;;14.95;;
21862;SDS011;11096;51.338;12.524;2022-11-21T05:07:14;39.55;;;15.15;;
21862;SDS011;11096;51.338;12.524;2022-11-21T05:09:41;38.25;;;14.60;;
21862;SDS011;11096;51.338;12.524;2022-11-21T05:12:08;39.00;;;15.95;;
21862;SDS011;11096;51.338;12.524;2022-11-21T05:14:52;40.00;;;15.85;;
21862;SDS011;11096;51.338;12.524;2022-11-21T05:17:18;35.95;;;14.63;;
21862;SDS011;11096;51.338;12.524;2022-11-21T05:19:43;38.13;;;14.45;;
21862;SDS011;11096;51.338;12.524;2022-11-21T05:22:08;39.28;;;15.57;;
21862;SDS011;11096;51.338;12.524;2022-11-21T05:24:34;35.70;;;15.18;;
21862;SDS011;11096;51.338;12.524;2022-11-21T05:26:59;40.42;;;15.50;;
21862;SDS011;11096;51.338;12.524;2022-11-21T05:29:24;33.42;;;14.18;;
21862;SDS011;11096;51.338;12.524;2022-11-21T05:31:50;41.08;;;16.50;;
21862;SDS011;11096;51.338;12.524;2022-11-21T05:34:15;39.58;;;15.20;;
21862;SDS011;11096;51.338;12.524;2022-11-21T05:36:41;42.80;;;16.30;;
21862;SDS011;11096;51.338;12.524;2022-11-21T05:39:06;32.80;;;14.70;;
21862;SDS011;11096;51.338;12.524;2022-11-21T05:41:31;34.47;;;14.20;;
21862;SDS011;11096;51.338;12.524;2022-11-21T05:43:57;31.80;;;12.70;;
21862;SDS011;11096;51.338;12.524;2022-11-21T05:46:23;35.22;;;13.82;;
21862;SDS011;11096;51.338;12.524;2022-11-21T05:48:50;37.00;;;14.68;;
21862;SDS011;11096;51.338;12.524;2022-11-21T05:51:17;35.40;;;14.98;;
21862;SDS011;11096;51.338;12.524;2022-11-21T05:53:43;34.53;;;13.93;;
21862;SDS011;11096;51.338;12.524;2022-11-21T05:56:10;34.08;;;13.35;;
21862;SDS011;11096;51.338;12.524;2022-11-21T05:58:37;31.13;;;13.65;;
21862;SDS011;11096;51.338;12.524;2022-11-21T06:01:04;38.03;;;14.25;;
21862;SDS011;11096;51.338;12.524;2022-11-21T06:03:33;35.30;;;13.70;;
21862;SDS011;11096;51.338;12.524;2022-11-21T06:06:01;31.73;;;13.35;;
21862;SDS011;11096;51.338;12.524;2022-11-21T06:08:33;35.08;;;12.65;;
21862;SDS011;11096;51.338;12.524;2022-11-21T06:11:03;30.98;;;12.88;;
21862;SDS011;11096;51.338;12.524;2022-11-21T06:13:30;28.58;;;11.98;;
21862;SDS011;11096;51.338;12.524;2022-11-21T06:18:34;28.65;;;12.38;;
21862;SDS011;11096;51.338;12.524;2022-11-21T06:21:05;25.52;;;12.25;;
21862;SDS011;11096;51.338;12.524;2022-11-21T06:23:31;33.17;;;12.18;;
21862;SDS011;11096;51.338;12.524;2022-11-21T06:25:58;26.40;;;11.70;;
21862;SDS011;11096;51.338;12.524;2022-11-21T06:28:25;29.30;;;11.85;;
21862;SDS011;11096;51.338;12.524;2022-11-21T06:30:51;33.60;;;13.07;;
21862;SDS011;11096;51.338;12.524;2022-11-21T06:33:17;30.88;;;13.20;;
21862;SDS011;11096;51.338;12.524;2022-11-21T06:35:43;30.88;;;12.77;;
21862;SDS011;11096;51.338;12.524;2022-11-21T06:38:09;45.63;;;15.20;;
21862;SDS011;11096;51.338;12.524;2022-11-21T06:40:36;30.40;;;13.20;;
21862;SDS011;11096;51.338;12.524;2022-11-21T06:43:02;34.28;;;13.75;;
21862;SDS011;11096;51.338;12.524;2022-11-21T06:45:27;37.88;;;14.55;;
21862;SDS011;11096;51.338;12.524;2022-11-21T06:47:52;30.35;;;13.75;;
21862;SDS011;11096;51.338;12.524;2022-11-21T06:50:18;31.90;;;12.65;;
21862;SDS011;11096;51.338;12.524;2022-11-21T06:52:43;35.92;;;13.65;;
21862;SDS011;11096;51.338;12.524;2022-11-21T06:55:09;33.10;;;13.07;;
21862;SDS011;11096;51.338;12.524;2022-11-21T06:57:35;35.28;;;13.43;;
21862;SDS011;11096;51.338;12.524;2022-11-21T07:00:00;38.45;;;14.40;;
21862;SDS011;11096;51.338;12.524;2022-11-21T07:02:26;40.38;;;14.30;;
21862;SDS011;11096;51.338;12.524;2022-11-21T07:04:51;32.88;;;13.02;;
21862;SDS011;11096;51.338;12.524;2022-11-21T07:07:17;36.50;;;14.30;;
21862;SDS011;11096;51.338;12.524;2022-11-21T07:09:43;33.45;;;13.07;;
21862;SDS011;11096;51.338;12.524;2022-11-21T07:12:08;39.35;;;14.40;;
21862;SDS011;11096;51.338;12.524;2022-11-21T07:14:52;35.50;;;13.15;;
21862;SDS011;11096;51.338;12.524;2022-11-21T07:17:18;38.75;;;14.50;;
21862;SDS011;11096;51.338;12.524;2022-11-21T07:19:43;32.95;;;14.60;;
21862;SDS011;11096;51.338;12.524;2022-11-21T07:22:08;35.97;;;14.05;;
21862;SDS011;11096;51.338;12.524;2022-11-21T07:24:34;32.83;;;13.25;;
21862;SDS011;11096;51.338;12.524;2022-11-21T07:27:00;45.03;;;14.77;;
21862;SDS011;11096;51.338;12.524;2022-11-21T07:29:26;40.03;;;14.13;;
21862;SDS011;11096;51.338;12.524;2022-11-21T07:31:51;38.28;;;15.57;;
21862;SDS011;11096;51.338;12.524;2022-11-21T07:34:16;47.05;;;15.65;;
21862;SDS011;11096;51.338;12.524;2022-11-21T07:36:42;44.53;;;15.85;;
21862;SDS011;11096;51.338;12.524;2022-11-21T07:39:07;43.08;;;16.35;;
21862;SDS011;11096;51.338;12.524;2022-11-21T07:41:32;48.03;;;17.05;;
21862;SDS011;11096;51.338;12.524;2022-11-21T07:43:58;43.60;;;15.90;;
21862;SDS011;11096;51.338;12.524;2022-11-21T07:46:23;44.70;;;15.85;;
21862;SDS011;11096;51.338;12.524;2022-11-21T07:48:49;39.92;;;15.65;;
21862;SDS011;11096;51.338;12.524;2022-11-21T07:51:14;41.30;;;15.80;;
21862;SDS011;11096;51.338;12.524;2022-11-21T07:53:40;43.20;;;16.38;;
21862;SDS011;11096;51.338;12.524;2022-11-21T07:56:05;39.42;;;16.05;;
21862;SDS011;11096;51.338;12.524;2022-11-21T07:58:33;40.20;;;15.65;;
21862;SDS011;11096;51.338;12.524;2022-11-21T08:01:01;47.97;;;16.40;;
21862;SDS011;11096;51.338;12.524;2022-11-21T08:03:29;50.78;;;17.15;;
21862;SDS011;11096;51.338;12.524;2022-11-21T08:05:54;42.03;;;16.38;;
21862;SDS011;11096;51.338;12.524;2022-11-21T08:08:20;42.90;;;16.05;;
21862;SDS011;11096;51.338;12.524;2022-11-21T08:10:45;47.05;;;16.67;;
21862;SDS011;11096;51.338;12.524;2022-11-21T08:13:11;41.10;;;14.13;;
21862;SDS011;11096;51.338;12.524;2022-11-21T08:15:37;40.95;;;14.25;;
21862;SDS011;11096;51.338;12.524;2022-11-21T08:18:07;41.25;;;14.82;;
21862;SDS011;11096;51.338;12.524;2022-11-21T08:20:41;33.50;;;13.52;;
21862;SDS011;11096;51.338;12.524;2022-11-21T08:23:07;34.05;;;13.98;;
21862;SDS011;11096;51.338;12.524;2022-11-21T08:25:35;40.10;;;15.15;;
21862;SDS011;11096;51.338;12.524;2022-11-21T08:28:02;41.47;;;14.38;;
21862;SDS011;11096;51.338;12.524;2022-11-21T08:30:29;35.85;;;13.65;;
21862;SDS011;11096;51.338;12.524;2022-11-21T08:32:58;38.95;;;15.02;;
21862;SDS011;11096;51.338;12.524;2022-11-21T08:35:25;33.70;;;13.57;;
21862;SDS011;11096;51.338;12.524;2022-11-21T08:37:58;33.95;;;12.90;;
21862;SDS011;11096;51.338;12.524;2022-11-21T08:40:24;33.03;;;12.75;;
21862;SDS011;11096;51.338;12.524;2022-11-21T08:45:26;36.60;;;13.88;;
21862;SDS011;11096;51.338;12.524;2022-11-21T08:47:53;37.65;;;13.65;;
21862;SDS011;11096;51.338;12.524;2022-11-21T08:50:19;40.35;;;14.75;;
21862;SDS011;11096;51.338;12.524;2022-11-21T08:52:45;38.90;;;14.80;;
21862;SDS011;11096;51.338;12.524;2022-11-21T08:55:10;44.40;;;14.60;;
21862;SDS011;11096;51.338;12.524;2022-11-21T08:57:39;37.97;;;15.20;;
21862;SDS011;11096;51.338;12.524;2022-11-21T09:00:05;38.85;;;13.05;;
21862;SDS011;11096;51.338;12.524;2022-11-21T09:02:32;38.67;;;14.55;;
21862;SDS011;11096;51.338;12.524;2022-11-21T09:04:57;38.20;;;12.95;;
21862;SDS011;11096;51.338;12.524;2022-11-21T09:07:23;35.70;;;14.57;;
21862;SDS011;11096;51.338;12.524;2022-11-21T09:09:49;37.45;;;15.20;;
21862;SDS011;11096;51.338;12.524;2022-11-21T09:12:14;32.03;;;13.90;;
21862;SDS011;11096;51.338;12.524;2022-11-21T09:14:40;35.75;;;13.70;;
21862;SDS011;11096;51.338;12.524;2022-11-21T09:17:24;32.80;;;12.60;;
21862;SDS011;11096;51.338;12.524;2022-11-21T09:20:08;28.58;;;11.60;;
21862;SDS011;11096;51.338;12.524;2022-11-21T09:22:33;30.08;;;12.48;;
21862;SDS011;11096;51.338;12.524;2022-11-21T09:24:59;27.23;;;11.13;;
21862;SDS011;11096;51.338;12.524;2022-11-21T09:27:24;27.15;;;11.15;;
21862;SDS011;11096;51.338;12.524;2022-11-21T09:29:49;23.95;;;9.68;;
21862;SDS011;11096;51.338;12.524;2022-11-21T09:32:15;28.27;;;9.80;;
21862;SDS011;11096;51.338;12.524;2022-11-21T09:34:40;21.02;;;9.38;;
21862;SDS011;11096;51.338;12.524;2022-11-21T09:37:06;26.08;;;9.82;;
21862;SDS011;11096;51.338;12.524;2022-11-21T09:39:31;22.67;;;9.63;;
21862;SDS011;11096;51.338;12.524;2022-11-21T09:45:18;26.70;;;10.48;;
21862;SDS011;11096;51.338;12.524;2022-11-21T09:47:50;30.52;;;11.25;;
21862;SDS011;11096;51.338;12.524;2022-11-21T09:50:23;31.45;;;11.30;;
21862;SDS011;11096;51.338;12.524;2022-11-21T09:52:56;26.42;;;10.77;;
21862;SDS011;11096;51.338;12.524;2022-11-21T09:55:28;29.45;;;9.80;;
21862;SDS011;11096;51.338;12.524;2022-11-21T09:58:02;24.70;;;10.55;;
21862;SDS011;11096;51.338;12.524;2022-11-21T10:00:30;28.48;;;10.02;;
21862;SDS011;11096;51.338;12.524;2022-11-21T10:02:56;28.95;;;9.23;;
21862;SDS011;11096;51.338;12.524;2022-11-21T10:05:32;30.90;;;10.40;;
21862;SDS011;11096;51.338;12.524;2022-11-21T10:08:14;28.02;;;9.82;;
21862;SDS011;11096;51.338;12.524;2022-11-21T10:10:52;23.42;;;8.95;;
21862;SDS011;11096;51.338;12.524;2022-11-21T10:15:55;21.73;;;9.10;;
21862;SDS011;11096;51.338;12.524;2022-11-21T10:26:37;29.80;;;10.43;;
21862;SDS011;11096;51.338;12.524;2022-11-21T10:29:18;26.27;;;9.68;;
21862;SDS011;11096;51.338;12.524;2022-11-21T10:31:44;24.60;;;9.40;;
21862;SDS011;11096;51.338;12.524;2022-11-21T10:34:14;29.67;;;11.68;;
21862;SDS011;11096;51.338;12.524;2022-11-21T10:39:43;26.95;;;11.68;;
21862;SDS011;11096;51.338;12.524;2022-11-21T10:44:36;25.98;;;10.25;;
21862;SDS011;11096;51.338;12.524;2022-11-21T10:47:20;23.27;;;10.02;;
21862;SDS011;11096;51.338;12.524;2022-11-21T10:52:24;26.95;;;10.00;;
21862;SDS011;11096;51.338;12.524;2022-11-21T10:55:12;28.17;;;11.68;;
21862;SDS011;11096;51.338;12.524;2022-11-21T11:02:38;27.23;;;10.07;;
21862;SDS011;11096;51.338;12.524;2022-11-21T11:07:42;22.27;;;9.80;;
21862;SDS011;11096;51.338;12.524;2022-11-21T11:10:24;28.38;;;11.77;;
21862;SDS011;11096;51.338;12.524;2022-11-21T11:12:50;25.08;;;10.52;;
21862;SDS011;11096;51.338;12.524;2022-11-21T11:15:35;23.83;;;10.00;;
21862;SDS011;11096;51.338;12.524;2022-11-21T11:18:04;23.70;;;10.00;;
21862;SDS011;11096;51.338;12.524;2022-11-21T11:20:37;21.30;;;9.27;;
21862;SDS011;11096;51.338;12.524;2022-11-21T11:25:53;17.35;;;9.13;;
21862;SDS011;11096;51.338;12.524;2022-11-21T11:28:19;19.13;;;9.15;;
21862;SDS011;11096;51.338;12.524;2022-11-21T11:30:46;27.20;;;10.80;;
21862;SDS011;11096;51.338;12.524;2022-11-21T11:35:54;24.02;;;10.20;;
21862;SDS011;11096;51.338;12.524;2022-11-21T11:38:27;22.98;;;9.18;;
21862;SDS011;11096;51.338;12.524;2022-11-21T11:40:54;24.83;;;9.07;;
21862;SDS011;11096;51.338;12.524;2022-11-21T11:49:49;23.13;;;8.98;;
21862;SDS011;11096;51.338;12.524;2022-11-21T11:52:56;19.23;;;9.32;;
21862;SDS011;11096;51.338;12.524;2022-11-21T11:57:48;26.17;;;9.80;;
21862;SDS011;11096;51.338;12.524;2022-11-21T12:05:39;20.95;;;9.38;;
21862;SDS011;11096;51.338;12.524;2022-11-21T12:08:20;21.52;;;8.93;;
21862;SDS011;11096;51.338;12.524;2022-11-21T12:10:54;19.23;;;8.63;;
21862;SDS011;11096;51.338;12.524;2022-11-21T12:13:44;22.25;;;9.75;;
21862;SDS011;11096;51.338;12.524;2022-11-21T12:16:12;17.98;;;9.20;;
21862;SDS011;11096;51.338;12.524;2022-11-21T12:21:15;17.52;;;8.27;;
21862;SDS011;11096;51.338;12.524;2022-11-21T12:26:28;19.58;;;9.40;;
21862;SDS011;11096;51.338;12.524;2022-11-21T12:34:12;22.13;;;9.55;;
21862;SDS011;11096;51.338;12.524;2022-11-21T12:57:16;22.13;;;8.63;;
21862;SDS011;11096;51.338;12.524;2022-11-21T13:05:04;27.23;;;10.52;;
21862;SDS011;11096;51.338;12.524;2022-11-21T13:07:35;26.70;;;10.48;;
21862;SDS011;11096;51.338;12.524;2022-11-21T13:10:02;20.67;;;9.18;;
21862;SDS011;11096;51.338;12.524;2022-11-21T13:12:32;28.15;;;9.77;;
21862;SDS011;11096;51.338;12.524;2022-11-21T13:18:34;30.02;;;11.98;;
21862;SDS011;11096;51.338;12.524;2022-11-21T13:40:35;35.17;;;12.52;;
21862;SDS011;11096;51.338;12.524;2022-11-21T13:45:40;36.75;;;13.45;;
21862;SDS011;11096;51.338;12.524;2022-11-21T14:02:03;29.17;;;10.90;;
21862;SDS011;11096;51.338;12.524;2022-11-21T14:05:05;25.65;;;10.25;;
21862;SDS011;11096;51.338;12.524;2022-11-21T14:07:37;22.85;;;9.35;;
21862;SDS011;11096;51.338;12.524;2022-11-21T14:10:50;24.63;;;9.27;;
21862;SDS011;11096;51.338;12.524;2022-11-21T14:13:00;27.33;;;9.57;;
21862;SDS011;11096;51.338;12.524;2022-11-21T14:15:48;29.73;;;11.18;;
21862;SDS011;11096;51.338;12.524;2022-11-21T14:18:27;30.30;;;11.07;;
21862;SDS011;11096;51.338;12.524;2022-11-21T14:20:54;35.25;;;11.35;;
21862;SDS011;11096;51.338;12.524;2022-11-21T14:23:29;32.20;;;12.07;;
21862;SDS011;11096;51.338;12.524;2022-11-21T14:26:13;28.55;;;11.95;;
21862;SDS011;11096;51.338;12.524;2022-11-21T14:28:43;23.27;;;10.50;;
21862;SDS011;11096;51.338;12.524;2022-11-21T14:31:09;28.80;;;10.88;;
21862;SDS011;11096;51.338;12.524;2022-11-21T14:36:16;27.67;;;11.05;;
21862;SDS011;11096;51.338;12.524;2022-11-21T14:38:44;23.15;;;9.70;;
21862;SDS011;11096;51.338;12.524;2022-11-21T14:44:35;18.15;;;8.43;;
21862;SDS011;11096;51.338;12.524;2022-11-21T14:46:36;25.60;;;9.85;;
21862;SDS011;11096;51.338;12.524;2022-11-21T14:49:16;25.15;;;9.63;;
21862;SDS011;11096;51.338;12.524;2022-11-21T14:54:21;19.85;;;8.65;;
21862;SDS011;11096;51.338;12.524;2022-11-21T14:56:59;21.25;;;9.80;;
21862;SDS011;11096;51.338;12.524;2022-11-21T15:00:00;25.35;;;10.73;;
21862;SDS011;11096;51.338;12.524;2022-11-21T15:02:23;23.80;;;9.65;;
21862;SDS011;11096;51.338;12.524;2022-11-21T15:04:51;21.42;;;9.55;;
21862;SDS011;11096;51.338;12.524;2022-11-21T15:07:23;26.10;;;10.15;;
21862;SDS011;11096;51.338;12.524;2022-11-21T15:09:49;28.58;;;10.15;;
21862;SDS011;11096;51.338;12.524;2022-11-21T15:12:26;25.60;;;11.02;;
21862;SDS011;11096;51.338;12.524;2022-11-21T15:14:55;20.17;;;9.43;;
21862;SDS011;11096;51.338;12.524;2022-11-21T15:17:22;24.67;;;9.73;;
21862;SDS011;11096;51.338;12.524;2022-11-21T15:22:47;23.50;;;9.82;;
21862;SDS011;11096;51.338;12.524;2022-11-21T15:27:48;27.25;;;10.60;;
21862;SDS011;11096;51.338;12.524;2022-11-21T15:30:35;29.10;;;11.50;;
21862;SDS011;11096;51.338;12.524;2022-11-21T15:38:30;27.67;;;11.48;;
21862;SDS011;11096;51.338;12.524;2022-11-21T15:41:08;25.92;;;10.85;;
21862;SDS011;11096;51.338;12.524;2022-11-21T15:43:47;28.25;;;11.30;;
21862;SDS011;11096;51.338;12.524;2022-11-21T15:46:33;25.60;;;10.25;;
21862;SDS011;11096;51.338;12.524;2022-11-21T15:49:11;26.38;;;10.50;;
21862;SDS011;11096;51.338;12.524;2022-11-21T15:51:44;25.63;;;10.63;;
21862;SDS011;11096;51.338;12.524;2022-11-21T15:54:12;34.60;;;12.45;;
21862;SDS011;11096;51.338;12.524;2022-11-21T15:56:39;27.08;;;11.52;;
21862;SDS011;11096;51.338;12.524;2022-11-21T15:59:08;31.33;;;12.77;;
21862;SDS011;11096;51.338;12.524;2022-11-21T16:01:34;24.80;;;11.45;;
21862;SDS011;11096;51.338;12.524;2022-11-21T16:04:01;33.05;;;12.52;;
21862;SDS011;11096;51.338;12.524;2022-11-21T16:06:28;31.17;;;12.55;;
21862;SDS011;11096;51.338;12.524;2022-11-21T16:08:55;31.75;;;12.73;;
21862;SDS011;11096;51.338;12.524;2022-11-21T16:13:48;31.25;;;12.93;;
21862;SDS011;11096;51.338;12.524;2022-11-21T16:16:15;34.13;;;13.82;;
21862;SDS011;11096;51.338;12.524;2022-11-21T16:18:41;33.95;;;13.18;;
21862;SDS011;11096;51.338;12.524;2022-11-21T16:21:07;25.00;;;11.35;;
21862;SDS011;11096;51.338;12.524;2022-11-21T16:23:33;29.67;;;13.30;;
21862;SDS011;11096;51.338;12.524;2022-11-21T16:25:59;29.65;;;12.40;;
21862;SDS011;11096;51.338;12.524;2022-11-21T16:28:25;30.25;;;12.02;;
21862;SDS011;11096;51.338;12.524;2022-11-21T16:30:50;33.58;;;12.18;;
21862;SDS011;11096;51.338;12.524;2022-11-21T16:33:16;30.40;;;12.43;;
21862;SDS011;11096;51.338;12.524;2022-11-21T16:35:42;29.75;;;11.77;;
21862;SDS011;11096;51.338;12.524;2022-11-21T16:38:08;31.30;;;12.45;;
21862;SDS011;11096;51.338;12.524;2022-11-21T16:40:34;27.75;;;11.90;;
21862;SDS011;11096;51.338;12.524;2022-11-21T16:43:11;37.78;;;13.25;;
21862;SDS011;11096;51.338;12.524;2022-11-21T16:45:37;30.52;;;12.13;;
21862;SDS011;11096;51.338;12.524;2022-11-21T16:48:06;29.63;;;11.63;;
21862;SDS011;11096;51.338;12.524;2022-11-21T16:50:32;29.35;;;12.02;;
21862;SDS011;11096;51.338;12.524;2022-11-21T16:52:57;32.47;;;11.55;;
21862;SDS011;11096;51.338;12.524;2022-11-21T16:55:23;30.20;;;12.18;;